Harkness, New York
Current Conditions -  °F | °C
As of 11:16 PM on Saturday 25 Oct 2014 (Local Time) from KPBG Reporting Station
Haze Haze  
Wind Chill: 46°   Ceiling: 8500
Heat Index: 48°   Visibility: 3mi
Dew Point: 47°   Wind: 5mph
Humidity: 96%   Direction: 220°SW
Pressure: 29.44"   Gusts: NA
Location:  44.5623°N, 73.5877°W
Report Text: KPBG 260316Z AUTO 22004KT 3SM BR BKN085 09/08 A2944 RMK AO2 T00890083
Loading
Personal Weather Stations






























Interactive Weather Map
Tropical Storm Tracking
New forecast layout! Learn more

10-Day Weather Forecast

Advertisements
Track Severe Weather on mobile